FACH946 SCTB-SCRD
Flight info
| Callsign | FACH946 |
|---|---|
| Flight time | N/A |
| Altitude | 10000 |
| Route | TOLAR4 AMB DCT SABLA |
| Aircraft | DHC6/L-SDFGR/C |
Departure
| Time | 2026-04-26 16:58 |
|---|---|
| Airport | Eulogio Sánchez Airport (SCTB) |
Arrival
| Time | N/A |
|---|---|
| Airport | Rodelillo Airport (SCRD) |
| Time | Latitude | Longitude | Altitude | Speed | Heading |
|---|---|---|---|---|---|
| 2026-04-26 16:48 | -33.45609 | -70.54820 | 2172 ft | 0 kts | 288° |
| 2026-04-26 16:52 | -33.45606 | -70.54821 | 2169 ft | 1 kts | 25° |
| 2026-04-26 16:53 | -33.45592 | -70.54803 | 2171 ft | 5 kts | 66° |
| 2026-04-26 16:53 | -33.45562 | -70.54755 | 2171 ft | 8 kts | 27° |
| 2026-04-26 16:53 | -33.45499 | -70.54734 | 2172 ft | 11 kts | 13° |
| 2026-04-26 16:53 | -33.45413 | -70.54710 | 2170 ft | 14 kts | 12° |
| 2026-04-26 16:54 | -33.45310 | -70.54680 | 2171 ft | 16 kts | 13° |
| 2026-04-26 16:54 | -33.45201 | -70.54649 | 2172 ft | 10 kts | 13° |
| 2026-04-26 16:54 | -33.45136 | -70.54631 | 2169 ft | 3 kts | 19° |
| 2026-04-26 16:54 | -33.45124 | -70.54600 | 2169 ft | 7 kts | 96° |
| 2026-04-26 16:55 | -33.45125 | -70.54582 | 2169 ft | 0 kts | 95° |
| 2026-04-26 16:55 | -33.45126 | -70.54578 | 2169 ft | 2 kts | 91° |
| 2026-04-26 16:56 | -33.45149 | -70.54535 | 2169 ft | 0 kts | 191° |
| 2026-04-26 16:56 | -33.45152 | -70.54536 | 2170 ft | 5 kts | 192° |
| 2026-04-26 16:56 | -33.45408 | -70.54609 | 2177 ft | 70 kts | 195° |
| 2026-04-26 16:57 | -33.46024 | -70.54787 | 2349 ft | 101 kts | 197° |
| 2026-04-26 16:57 | -33.46589 | -70.54975 | 2658 ft | 109 kts | 200° |
| 2026-04-26 16:58 | -33.46940 | -70.55121 | 2806 ft | 115 kts | 202° |
| 2026-04-26 16:59 | -33.47710 | -70.55536 | 3134 ft | 127 kts | 207° |
| 2026-04-26 16:59 | -33.49234 | -70.56810 | 3777 ft | 139 kts | 223° |
| 2026-04-26 17:00 | -33.50535 | -70.58562 | 4462 ft | 143 kts | 234° |
| 2026-04-26 17:00 | -33.51538 | -70.60689 | 5019 ft | 152 kts | 244° |
| 2026-04-26 17:00 | -33.51861 | -70.61754 | 5737 ft | 121 kts | 252° |
| 2026-04-26 17:01 | -33.52022 | -70.62670 | 6357 ft | 107 kts | 260° |
| 2026-04-26 17:01 | -33.52073 | -70.63549 | 6818 ft | 105 kts | 268° |
| 2026-04-26 17:01 | -33.52021 | -70.64429 | 7240 ft | 106 kts | 276° |
| 2026-04-26 17:01 | -33.51851 | -70.65294 | 7650 ft | 107 kts | 286° |
| 2026-04-26 17:02 | -33.51571 | -70.66123 | 8061 ft | 108 kts | 294° |
| 2026-04-26 17:02 | -33.51196 | -70.66904 | 8474 ft | 108 kts | 302° |
| 2026-04-26 17:02 | -33.50727 | -70.67615 | 8883 ft | 109 kts | 311° |
| 2026-04-26 17:02 | -33.50166 | -70.68234 | 9299 ft | 110 kts | 320° |
| 2026-04-26 17:03 | -33.49539 | -70.68742 | 9691 ft | 112 kts | 329° |
| 2026-04-26 17:03 | -33.48793 | -70.69177 | 9924 ft | 129 kts | 336° |
| 2026-04-26 17:03 | -33.47870 | -70.69554 | 10022 ft | 150 kts | 343° |
| 2026-04-26 17:03 | -33.46789 | -70.69842 | 10058 ft | 167 kts | 349° |
| 2026-04-26 17:04 | -33.45595 | -70.70018 | 10077 ft | 178 kts | 355° |
| 2026-04-26 17:04 | -33.44329 | -70.70068 | 10075 ft | 185 kts | 0° |
| 2026-04-26 17:04 | -33.43035 | -70.69987 | 10075 ft | 188 kts | 5° |
| 2026-04-26 17:04 | -33.41730 | -70.69775 | 10081 ft | 190 kts | 10° |
| 2026-04-26 17:05 | -33.40433 | -70.69434 | 10080 ft | 192 kts | 14° |
| 2026-04-26 17:05 | -33.39155 | -70.68965 | 10076 ft | 192 kts | 19° |
| 2026-04-26 17:05 | -33.37955 | -70.68897 | 10347 ft | 166 kts | 330° |
| 2026-04-26 17:05 | -33.37466 | -70.70051 | 10446 ft | 165 kts | 267° |
| 2026-04-26 17:06 | -33.37820 | -70.71366 | 10460 ft | 171 kts | 234° |
| 2026-04-26 17:06 | -33.38747 | -70.72253 | 10463 ft | 175 kts | 202° |
| 2026-04-26 17:06 | -33.39955 | -70.72417 | 10478 ft | 179 kts | 172° |
| 2026-04-26 17:06 | -33.41090 | -70.71793 | 10470 ft | 184 kts | 141° |
| 2026-04-26 17:07 | -33.41796 | -70.70529 | 10483 ft | 187 kts | 111° |
| 2026-04-26 17:07 | -33.41879 | -70.68976 | 10477 ft | 191 kts | 81° |
| 2026-04-26 17:07 | -33.41303 | -70.67547 | 10479 ft | 194 kts | 51° |
| 2026-04-26 17:07 | -33.40208 | -70.66624 | 10481 ft | 195 kts | 21° |
| 2026-04-26 17:08 | -33.38873 | -70.66443 | 10481 ft | 195 kts | 352° |
| 2026-04-26 17:08 | -33.37638 | -70.67053 | 10482 ft | 193 kts | 322° |
| 2026-04-26 17:08 | -33.36818 | -70.68292 | 10484 ft | 191 kts | 292° |
| 2026-04-26 17:08 | -33.36620 | -70.69832 | 10480 ft | 188 kts | 263° |
| 2026-04-26 17:09 | -33.37085 | -70.71257 | 10487 ft | 185 kts | 233° |
| 2026-04-26 17:09 | -33.37694 | -70.71950 | 10487 ft | 181 kts | 213° |
| 2026-04-26 17:09 | -33.39248 | -70.72699 | 10331 ft | 186 kts | 200° |
| 2026-04-26 17:09 | -33.40479 | -70.73153 | 10356 ft | 183 kts | 194° |
| 2026-04-26 17:10 | -33.41701 | -70.73486 | 10373 ft | 182 kts | 191° |
| 2026-04-26 17:10 | -33.42719 | -70.74258 | 10090 ft | 192 kts | 236° |
| 2026-04-26 17:10 | -33.43035 | -70.75840 | 9881 ft | 197 kts | 270° |
| 2026-04-26 17:10 | -33.42582 | -70.77355 | 9892 ft | 196 kts | 304° |
| 2026-04-26 17:11 | -33.41489 | -70.78324 | 9886 ft | 196 kts | 339° |
| 2026-04-26 17:11 | -33.40164 | -70.78411 | 9893 ft | 195 kts | 13° |
| 2026-04-26 17:11 | -33.39012 | -70.77609 | 9877 ft | 192 kts | 48° |
| 2026-04-26 17:11 | -33.38033 | -70.76571 | 9891 ft | 191 kts | 28° |
| 2026-04-26 17:12 | -33.35546 | -70.75543 | 9880 ft | 190 kts | 33° |
| 2026-04-26 17:12 | -33.34569 | -70.74484 | 9884 ft | 190 kts | 52° |
| 2026-04-26 17:13 | -33.33396 | -70.71768 | 9760 ft | 180 kts | 43° |
| 2026-04-26 17:13 | -33.32393 | -70.70831 | 9765 ft | 183 kts | 29° |
| 2026-04-26 17:13 | -33.31586 | -70.72432 | 9165 ft | 201 kts | 217° |
| 2026-04-26 17:14 | -33.32646 | -70.73365 | 9259 ft | 183 kts | 218° |
| 2026-04-26 17:14 | -33.34595 | -70.74999 | 9818 ft | 160 kts | 209° |
| 2026-04-26 17:14 | -33.35592 | -70.75616 | 9969 ft | 164 kts | 204° |